createdAt,value
2023-04-19T00:01:33.930Z,99219.88
2023-04-19T00:04:03.770Z,99214.88
2023-04-19T00:06:32.006Z,99215.26
2023-04-19T00:09:00.230Z,99208.13
2023-04-19T00:11:28.362Z,99212.38
2023-04-19T00:13:56.566Z,99209.06
2023-04-19T00:16:24.789Z,99210.96
2023-04-19T00:18:53.061Z,99210.84
2023-04-19T00:21:21.300Z,99206.04
2023-04-19T00:23:49.450Z,99203.54
2023-04-19T00:26:17.584Z,99203.35
2023-04-19T00:28:48.809Z,99198.55
2023-04-19T00:31:17.231Z,99198.03
2023-04-19T00:33:45.463Z,99191.86
2023-04-19T00:36:13.730Z,99191.94
2023-04-19T00:38:41.885Z,99188.80
2023-04-19T00:41:11.599Z,99183.80
2023-04-19T00:43:39.900Z,99178.94
2023-04-19T00:46:08.057Z,99175.92
2023-04-19T00:48:36.406Z,99180.48
2023-04-19T00:51:04.849Z,99175.48
2023-04-19T00:53:33.289Z,99172.89
2023-04-19T00:56:01.579Z,99168.88
2023-04-19T00:58:31.609Z,99167.52
2023-04-19T01:01:00.560Z,99168.14
2023-04-19T01:03:32.094Z,99164.85
2023-04-19T01:06:00.325Z,99162.71
2023-04-19T01:08:28.364Z,99165.60
2023-04-19T01:10:56.516Z,99160.02
2023-04-19T01:13:25.132Z,99158.15
2023-04-19T01:15:53.246Z,99155.80
2023-04-19T01:18:24.458Z,99156.09
2023-04-19T01:20:52.928Z,99157.10
2023-04-19T01:23:21.552Z,99155.56
2023-04-19T01:25:50.722Z,99158.25
2023-04-19T01:28:19.024Z,99158.40
2023-04-19T01:30:51.309Z,99157.56
2023-04-19T01:33:21.114Z,99156.20
2023-04-19T01:35:49.539Z,99149.67
2023-04-19T01:38:17.757Z,99148.20
2023-04-19T01:40:46.175Z,99146.03
2023-04-19T01:43:17.411Z,99145.98
2023-04-19T01:45:46.171Z,99144.06
2023-04-19T01:48:14.730Z,99147.75
2023-04-19T01:50:42.824Z,99152.83
2023-04-19T01:53:12.306Z,99147.23
2023-04-19T01:55:40.607Z,99144.66
2023-04-19T01:58:09.967Z,99134.46
2023-04-19T02:00:38.137Z,99135.84
2023-04-19T02:03:06.405Z,99133.95
2023-04-19T02:05:34.827Z,99138.64
2023-04-19T02:08:03.100Z,99135.53
2023-04-19T02:10:32.228Z,99131.63
2023-04-19T02:13:00.368Z,99132.75
2023-04-19T02:15:29.332Z,99131.44
2023-04-19T02:17:57.605Z,99128.27
2023-04-19T02:20:25.926Z,99126.08
2023-04-19T02:22:54.133Z,99124.21
2023-04-19T02:25:22.230Z,99125.38
2023-04-19T02:27:51.136Z,99120.58
2023-04-19T02:30:19.431Z,99121.93
2023-04-19T02:32:51.354Z,99119.98
2023-04-19T02:35:19.646Z,99122.53
2023-04-19T02:37:47.722Z,99116.08
2023-04-19T02:40:16.209Z,99116.04
2023-04-19T02:42:44.240Z,99116.14
2023-04-19T02:45:12.516Z,99118.38
2023-04-19T02:47:40.965Z,99115.95
2023-04-19T02:50:09.692Z,99112.89
2023-04-19T02:52:42.208Z,99112.42
2023-04-19T02:55:10.539Z,99113.95
2023-04-19T02:57:39.314Z,99120.52
2023-04-19T03:00:09.272Z,99123.05
2023-04-19T03:02:39.681Z,99121.39
2023-04-19T03:05:08.953Z,99118.84
2023-04-19T03:07:37.387Z,99119.14
2023-04-19T03:10:06.233Z,99120.63
2023-04-19T03:12:34.468Z,99116.38
2023-04-19T03:15:02.704Z,99118.66
2023-04-19T03:17:31.112Z,99117.70
2023-04-19T03:19:59.398Z,99114.39
2023-04-19T03:22:28.126Z,99113.04
2023-04-19T03:24:56.904Z,99114.27
2023-04-19T03:27:25.781Z,99110.87
2023-04-19T03:29:58.356Z,99105.10
2023-04-19T03:32:27.392Z,99105.13
2023-04-19T03:34:55.528Z,99105.30
2023-04-19T03:37:23.635Z,99108.52
2023-04-19T03:39:51.785Z,99107.31
2023-04-19T03:42:26.004Z,99112.15
2023-04-19T03:45:16.054Z,99117.27
2023-04-19T03:47:47.385Z,99112.25
2023-04-19T03:50:15.984Z,99106.58
2023-04-19T03:52:46.338Z,99112.13
2023-04-19T03:55:14.662Z,99112.17
2023-04-19T03:57:42.832Z,99108.82
2023-04-19T04:00:17.848Z,99114.98
2023-04-19T04:02:50.214Z,99110.39
2023-04-19T04:05:18.723Z,99111.88
2023-04-19T04:07:47.066Z,99106.89
2023-04-19T04:10:15.796Z,99112.92
2023-04-19T04:12:44.450Z,99112.00
2023-04-19T04:15:15.597Z,99114.19
2023-04-19T04:17:48.391Z,99112.65
2023-04-19T04:20:16.706Z,99111.86
2023-04-19T04:22:48.443Z,99108.19
2023-04-19T04:25:20.555Z,99111.40
2023-04-19T04:27:54.670Z,99113.89
2023-04-19T04:30:24.809Z,99114.77
2023-04-19T04:32:58.091Z,99114.56
2023-04-19T04:35:29.126Z,99113.55
2023-04-19T04:38:11.132Z,99116.98
2023-04-19T04:40:43.941Z,99124.42
2023-04-19T04:43:13.543Z,99121.23
2023-04-19T04:45:44.626Z,99126.33
2023-04-19T04:48:13.472Z,99121.61
2023-04-19T04:50:41.854Z,99122.73
2023-04-19T04:53:11.073Z,99123.70
2023-04-19T04:55:42.853Z,99125.08
2023-04-19T04:58:12.617Z,99125.65
2023-04-19T05:00:51.663Z,99129.15
2023-04-19T05:03:21.479Z,99125.38
2023-04-19T05:05:54.900Z,99119.67
2023-04-19T05:08:28.478Z,99119.71
2023-04-19T05:11:00.820Z,99118.67
2023-04-19T05:13:30.507Z,99121.10
2023-04-19T05:16:00.517Z,99122.35
2023-04-19T05:18:29.413Z,99122.48
2023-04-19T05:20:58.598Z,99121.17
2023-04-19T05:23:29.507Z,99127.33
2023-04-19T05:25:58.665Z,99122.63
2023-04-19T05:28:28.058Z,99122.73
2023-04-19T05:31:09.383Z,99123.48
2023-04-19T05:33:45.004Z,99129.56
2023-04-19T05:36:13.124Z,99130.41
2023-04-19T05:38:41.215Z,99129.45
2023-04-19T05:41:09.333Z,99126.16
2023-04-19T05:43:37.441Z,99129.34
2023-04-19T05:46:06.377Z,99127.45
2023-04-19T05:48:34.711Z,99130.15
2023-04-19T05:51:11.228Z,99134.82
2023-04-19T05:54:00.298Z,99135.25
2023-04-19T05:56:28.669Z,99134.89
2023-04-19T05:58:57.068Z,99136.80
2023-04-19T06:01:25.273Z,99142.72
2023-04-19T06:03:54.468Z,99144.29
2023-04-19T06:06:23.925Z,99149.34
2023-04-19T06:08:54.656Z,99146.86
2023-04-19T06:11:26.950Z,99144.51
2023-04-19T06:14:03.695Z,99146.27
2023-04-19T06:16:32.716Z,99147.77
2023-04-19T06:19:01.034Z,99149.70
2023-04-19T06:21:33.057Z,99149.82
2023-04-19T06:24:01.511Z,99150.45
2023-04-19T06:26:29.856Z,99145.57
2023-04-19T06:28:58.056Z,99140.84
2023-04-19T06:31:26.191Z,99142.66
2023-04-19T06:33:54.316Z,99137.83
2023-04-19T06:36:22.466Z,99132.46
2023-04-19T06:38:50.806Z,99133.57
2023-04-19T06:41:19.598Z,99128.87
2023-04-19T06:43:48.110Z,99124.88
2023-04-19T06:46:16.549Z,99121.34
2023-04-19T06:48:44.862Z,99118.44
2023-04-19T06:51:12.991Z,99117.92
2023-04-19T06:53:41.150Z,99111.93
2023-04-19T06:56:10.395Z,99113.75
2023-04-19T06:58:38.656Z,99110.39
2023-04-19T07:01:07.682Z,99105.75
2023-04-19T07:03:36.448Z,99101.27
2023-04-19T07:06:04.987Z,99109.77
2023-04-19T07:08:48.784Z,99113.89
2023-04-19T07:11:20.370Z,99110.95
2023-04-19T07:13:50.257Z,99109.11
2023-04-19T07:16:18.549Z,99111.47
2023-04-19T07:18:46.694Z,99116.80
2023-04-19T07:21:14.957Z,99119.69
2023-04-19T07:23:43.010Z,99123.02
2023-04-19T07:26:11.363Z,99129.35
2023-04-19T07:28:39.968Z,99131.51
2023-04-19T07:31:08.047Z,99128.58
2023-04-19T07:33:36.235Z,99130.26
2023-04-19T07:36:04.371Z,99130.25
2023-04-19T07:38:32.582Z,99133.61
2023-04-19T07:41:00.718Z,99130.53
2023-04-19T07:43:30.310Z,99128.73
2023-04-19T07:45:58.444Z,99131.36
2023-04-19T07:48:27.336Z,99131.54
2023-04-19T07:50:55.648Z,99130.55
2023-04-19T07:53:23.772Z,99131.44
2023-04-19T07:55:51.833Z,99128.93
2023-04-19T07:58:19.955Z,99123.64
2023-04-19T08:00:48.408Z,99123.71
2023-04-19T08:03:16.727Z,99128.16
2023-04-19T08:05:45.845Z,99125.58
2023-04-19T08:08:13.945Z,99121.46
2023-04-19T08:10:42.395Z,99123.12
2023-04-19T08:13:10.629Z,99131.63
2023-04-19T08:16:18.073Z,99129.16
2023-04-19T08:18:27.089Z,99121.97
2023-04-19T08:20:56.696Z,99119.30
2023-04-19T08:23:31.823Z,99117.27
2023-04-19T08:26:06.235Z,99116.86
2023-04-19T08:28:34.377Z,99114.73
2023-04-19T08:31:06.008Z,99110.55
2023-04-19T08:33:35.944Z,99108.20
2023-04-19T08:36:05.378Z,99113.09
2023-04-19T08:38:33.474Z,99118.23
2023-04-19T08:41:01.654Z,99123.98
2023-04-19T08:43:33.509Z,99121.15
2023-04-19T08:46:01.718Z,99126.77
2023-04-19T08:48:29.982Z,99130.98
2023-04-19T08:51:05.024Z,99125.61
2023-04-19T08:53:35.950Z,99129.30
2023-04-19T08:56:17.406Z,99119.67
2023-04-19T09:01:33.689Z,99125.44
2023-04-19T09:04:16.990Z,99125.77
2023-04-19T09:06:55.487Z,99120.55
2023-04-19T09:11:59.491Z,99115.41
2023-04-19T09:14:28.354Z,99119.44
2023-04-19T09:17:17.384Z,99117.41
2023-04-19T09:19:49.714Z,99108.85
2023-04-19T09:22:18.763Z,99115.02
2023-04-19T09:25:22.780Z,99114.95
2023-04-19T09:27:36.585Z,99120.24
2023-04-19T09:30:07.278Z,99125.69
2023-04-19T09:32:48.013Z,99124.13
2023-04-19T09:35:16.726Z,99128.01
2023-04-19T09:38:05.786Z,99131.44
2023-04-19T09:40:35.472Z,99127.67
2023-04-19T09:45:42.624Z,99135.75
2023-04-19T09:48:11.941Z,99136.30
2023-04-19T09:50:59.712Z,99134.67
2023-04-19T09:53:34.481Z,99132.09
2023-04-19T09:56:04.296Z,99132.02
2023-04-19T10:01:13.997Z,99133.16
2023-04-19T10:03:46.381Z,99125.90
2023-04-19T10:08:51.425Z,99126.52
2023-04-19T10:11:22.076Z,99124.54
2023-04-19T10:13:50.342Z,99124.02
2023-04-19T10:16:20.279Z,99124.98
2023-04-19T10:18:50.303Z,99125.48
2023-04-19T10:21:19.268Z,99124.81
2023-04-19T10:23:47.884Z,99124.04
2023-04-19T10:26:16.237Z,99128.09
2023-04-19T10:28:44.392Z,99123.49
2023-04-19T10:31:16.336Z,99123.55
2023-04-19T10:33:44.705Z,99122.34
2023-04-19T10:36:14.531Z,99121.02
2023-04-19T10:38:51.609Z,99121.84
2023-04-19T10:41:19.857Z,99121.59
2023-04-19T10:44:00.339Z,99124.38
2023-04-19T10:46:29.720Z,99122.67
2023-04-19T10:48:59.292Z,99123.82
2023-04-19T10:51:28.136Z,99119.59
2023-04-19T10:54:18.721Z,99116.30
2023-04-19T10:57:04.808Z,99116.20
2023-04-19T10:59:37.354Z,99117.56
2023-04-19T11:02:28.269Z,99124.33
2023-04-19T11:04:56.600Z,99126.79
2023-04-19T11:07:24.842Z,99123.55
2023-04-19T11:09:53.021Z,99125.14
2023-04-19T11:12:23.010Z,99117.60
2023-04-19T11:14:53.121Z,99120.13
2023-04-19T11:17:28.450Z,99124.08
2023-04-19T11:19:56.801Z,99123.67
2023-04-19T11:23:00.352Z,99117.85
2023-04-19T11:25:31.702Z,99119.45
2023-04-19T11:27:59.824Z,99120.33
2023-04-19T11:30:30.805Z,99128.63
2023-04-19T11:32:59.320Z,99128.77
2023-04-19T11:35:28.104Z,99123.02
2023-04-19T11:37:56.813Z,99127.88
2023-04-19T11:40:28.562Z,99118.23
2023-04-19T11:43:01.084Z,99122.32
2023-04-19T11:45:34.455Z,99119.14
2023-04-19T11:48:04.849Z,99111.98
2023-04-19T11:50:34.020Z,99112.66
2023-04-19T11:53:24.216Z,99112.20
2023-04-19T11:56:08.572Z,99109.83
2023-04-19T11:58:45.195Z,99114.41
2023-04-19T12:01:14.039Z,99112.36
2023-04-19T12:03:50.523Z,99108.98
2023-04-19T12:06:29.915Z,99119.58
2023-04-19T12:08:58.040Z,99115.98
2023-04-19T12:11:27.320Z,99117.09
2023-04-19T12:14:12.271Z,99116.34
2023-04-19T12:16:40.629Z,99118.54
2023-04-19T12:19:17.670Z,99113.00
2023-04-19T12:21:46.875Z,99119.03
2023-04-19T12:24:15.715Z,99122.45
2023-04-19T12:26:56.247Z,99115.42
2023-04-19T12:29:24.872Z,99117.62
2023-04-19T12:31:53.234Z,99117.02
2023-04-19T12:34:21.556Z,99114.42
2023-04-19T12:36:50.147Z,99118.59
2023-04-19T12:39:18.834Z,99119.55
2023-04-19T12:41:48.902Z,99114.98
2023-04-19T12:44:17.087Z,99117.64
2023-04-19T12:46:45.305Z,99122.79
2023-04-19T12:49:13.540Z,99118.44
2023-04-19T12:51:42.923Z,99126.15
2023-04-19T12:54:11.176Z,99121.70
2023-04-19T12:56:39.249Z,99122.75
2023-04-19T12:59:07.348Z,99122.33
2023-04-19T13:01:35.847Z,99116.64
2023-04-19T13:04:05.392Z,99123.46
2023-04-19T13:06:34.864Z,99119.39
2023-04-19T13:09:11.495Z,99128.70
2023-04-19T13:11:42.370Z,99125.60
2023-04-19T13:14:10.646Z,99130.16
2023-04-19T13:16:38.695Z,99124.97
2023-04-19T13:19:06.980Z,99130.08
2023-04-19T13:21:35.326Z,99125.35
2023-04-19T13:24:03.530Z,99123.60
2023-04-19T13:26:31.689Z,99120.16
2023-04-19T13:29:00.314Z,99120.17
2023-04-19T13:31:28.643Z,99117.14
2023-04-19T13:33:57.166Z,99120.34
2023-04-19T13:36:25.251Z,99121.30
2023-04-19T13:38:53.434Z,99124.21
2023-04-19T13:41:21.626Z,99125.27
2023-04-19T13:43:49.717Z,99126.59
2023-04-19T13:46:18.036Z,99122.18
2023-04-19T13:48:46.368Z,99116.38
2023-04-19T13:51:14.426Z,99128.13
2023-04-19T13:53:42.591Z,99117.88
2023-04-19T13:56:11.432Z,99120.77
2023-04-19T13:58:39.578Z,99124.29
2023-04-19T14:01:07.974Z,99125.23
2023-04-19T14:03:36.898Z,99131.38
2023-04-19T14:06:05.367Z,99124.33
2023-04-19T14:08:33.837Z,99125.17
2023-04-19T14:11:02.005Z,99128.52
2023-04-19T14:13:30.308Z,99131.97
2023-04-19T14:15:58.467Z,99126.82
2023-04-19T14:18:26.981Z,99128.70
2023-04-19T14:20:55.396Z,99117.86
2023-04-19T14:23:23.391Z,99126.14
2023-04-19T14:25:53.530Z,99123.11
2023-04-19T14:28:22.412Z,99125.16
2023-04-19T14:30:50.571Z,99129.52
2023-04-19T14:33:18.860Z,99127.56
2023-04-19T14:35:47.442Z,99127.87
2023-04-19T14:38:16.121Z,99128.96
2023-04-19T14:40:44.283Z,99130.05
2023-04-19T14:43:15.134Z,99134.27
2023-04-19T14:45:43.529Z,99130.08
2023-04-19T14:48:12.065Z,99126.80
2023-04-19T14:50:40.150Z,99123.64
2023-04-19T14:53:08.792Z,99130.52
2023-04-19T14:55:40.066Z,99132.16
2023-04-19T14:58:09.069Z,99130.04
2023-04-19T15:00:37.675Z,99125.67
2023-04-19T15:03:06.078Z,99129.77
2023-04-19T15:05:34.986Z,99131.30
2023-04-19T15:08:03.213Z,99138.74
2023-04-19T15:10:32.149Z,99138.20
2023-04-19T15:13:00.435Z,99144.12
2023-04-19T15:15:29.594Z,99148.80
2023-04-19T15:17:58.005Z,99148.77
2023-04-19T15:20:26.453Z,99136.83
2023-04-19T15:22:54.521Z,99144.81
2023-04-19T15:25:22.791Z,99152.58
2023-04-19T15:27:50.901Z,99150.74
2023-04-19T15:30:19.215Z,99143.42
2023-04-19T15:32:47.474Z,99150.77
2023-04-19T15:35:15.947Z,99148.52
2023-04-19T15:37:46.455Z,99147.64
2023-04-19T15:40:17.128Z,99154.77
2023-04-19T15:42:46.491Z,99150.80
2023-04-19T15:45:15.726Z,99151.59
2023-04-19T15:47:44.004Z,99156.25
2023-04-19T15:50:12.147Z,99149.52
2023-04-19T15:52:41.478Z,99159.48
2023-04-19T15:55:09.885Z,99154.05
2023-04-19T15:57:38.324Z,99163.20
2023-04-19T16:00:09.504Z,99163.06
2023-04-19T16:02:41.172Z,99162.72
2023-04-19T16:05:09.610Z,99166.23
2023-04-19T16:07:38.554Z,99163.04
2023-04-19T16:10:07.570Z,99170.98
2023-04-19T16:12:36.447Z,99175.52
2023-04-19T16:15:05.544Z,99176.02
2023-04-19T16:17:36.134Z,99181.45
2023-04-19T16:20:04.934Z,99179.35
2023-04-19T16:22:33.223Z,99180.08
2023-04-19T16:25:03.701Z,99182.58
2023-04-19T16:27:31.962Z,99184.89
2023-04-19T16:30:00.151Z,99188.11
2023-04-19T16:32:28.492Z,99180.74
2023-04-19T16:34:56.707Z,99192.05
2023-04-19T16:37:25.786Z,99190.85
2023-04-19T16:39:53.968Z,99192.82
2023-04-19T16:42:22.227Z,99196.27
2023-04-19T16:44:50.343Z,99197.88
2023-04-19T16:47:18.462Z,99197.34
2023-04-19T16:49:50.647Z,99198.65
2023-04-19T16:52:19.202Z,99200.61
2023-04-19T16:54:47.291Z,99200.95
2023-04-19T16:57:16.533Z,99198.02
2023-04-19T16:59:45.001Z,99198.95
2023-04-19T17:02:13.211Z,99203.92
2023-04-19T17:04:41.614Z,99201.43
2023-04-19T17:07:09.968Z,99206.16
2023-04-19T17:09:38.304Z,99203.98
2023-04-19T17:12:07.160Z,99207.93
2023-04-19T17:14:35.470Z,99208.52
2023-04-19T17:17:03.777Z,99207.46
2023-04-19T17:19:31.878Z,99211.73
2023-04-19T17:22:05.770Z,99215.27
2023-04-19T17:24:34.327Z,99217.74
2023-04-19T17:27:02.693Z,99218.56
2023-04-19T17:29:31.191Z,99218.92
2023-04-19T17:32:00.332Z,99220.73
2023-04-19T17:34:28.638Z,99217.46
2023-04-19T17:36:56.828Z,99221.50
2023-04-19T17:39:27.899Z,99224.19
2023-04-19T17:41:56.387Z,99228.76
2023-04-19T17:44:24.537Z,99232.02
2023-04-19T17:46:52.748Z,99229.53
2023-04-19T17:49:21.990Z,99230.80
2023-04-19T17:51:53.274Z,99232.59
2023-04-19T17:54:21.370Z,99233.08
2023-04-19T17:56:49.501Z,99233.80
2023-04-19T17:59:17.933Z,99233.58
2023-04-19T18:01:46.265Z,99236.64
2023-04-19T18:04:18.155Z,99238.16
2023-04-19T18:06:46.981Z,99242.20
2023-04-19T18:09:16.905Z,99241.72
2023-04-19T18:11:45.219Z,99245.42
2023-04-19T18:14:15.371Z,99247.20
2023-04-19T18:16:43.655Z,99249.93
2023-04-19T18:19:11.899Z,99251.48
2023-04-19T18:21:40.103Z,99253.46
2023-04-19T18:24:08.471Z,99255.00
2023-04-19T18:26:41.464Z,99259.40
2023-04-19T18:29:10.349Z,99263.59
2023-04-19T18:31:38.565Z,99266.17
2023-04-19T18:34:07.071Z,99262.52
2023-04-19T18:36:35.294Z,99264.23
2023-04-19T18:39:04.590Z,99264.60
2023-04-19T18:41:33.636Z,99263.96
2023-04-19T18:46:34.180Z,99267.86
2023-04-19T18:49:02.340Z,99265.02
2023-04-19T18:51:30.859Z,99262.50
2023-04-19T18:53:58.925Z,99263.06
2023-04-19T18:57:04.427Z,99263.84
2023-04-19T18:59:16.005Z,99264.14
2023-04-19T19:01:45.762Z,99262.10
2023-04-19T19:04:42.849Z,99264.91
2023-04-19T19:07:27.372Z,99265.29
2023-04-19T19:10:06.365Z,99264.39
2023-04-19T19:12:44.727Z,99264.33
2023-04-19T19:15:13.801Z,99262.73
2023-04-19T19:17:43.358Z,99265.40
2023-04-19T19:20:12.108Z,99254.38
2023-04-19T19:22:40.472Z,99256.79
2023-04-19T19:25:10.718Z,99260.37
2023-04-19T19:27:39.078Z,99258.92
2023-04-19T19:30:08.374Z,99258.20
2023-04-19T19:32:37.149Z,99256.73
2023-04-19T19:35:08.536Z,99255.80
2023-04-19T19:37:37.299Z,99251.74
2023-04-19T19:40:06.771Z,99258.99
2023-04-19T19:42:35.368Z,99264.71
2023-04-19T19:45:04.282Z,99263.00
2023-04-19T19:47:35.512Z,99261.50
2023-04-19T19:50:50.542Z,99263.31
2023-04-19T19:52:52.619Z,99263.00
2023-04-19T19:55:20.815Z,99265.02
2023-04-19T19:58:25.810Z,99257.45
2023-04-19T20:00:46.293Z,99258.91
2023-04-19T20:03:28.470Z,99264.39
2023-04-19T20:08:43.983Z,99270.71
2023-04-19T20:11:12.832Z,99269.12
2023-04-19T20:13:41.221Z,99271.08
2023-04-19T20:16:10.993Z,99268.63
2023-04-19T20:18:39.256Z,99268.30
2023-04-19T20:21:07.776Z,99270.83
2023-04-19T20:23:39.941Z,99265.34
2023-04-19T20:26:08.395Z,99264.09
2023-04-19T20:28:36.674Z,99263.23
2023-04-19T20:31:05.053Z,99260.33
2023-04-19T20:33:34.059Z,99264.74
2023-04-19T20:36:04.408Z,99269.73
2023-04-19T20:38:34.636Z,99265.97
2023-04-19T20:41:03.294Z,99267.59
2023-04-19T20:43:32.626Z,99264.23
2023-04-19T20:46:00.970Z,99266.70
2023-04-19T20:48:29.471Z,99266.38
2023-04-19T20:50:57.776Z,99266.34
2023-04-19T20:53:26.210Z,99265.79
2023-04-19T20:55:54.357Z,99262.94
2023-04-19T20:58:22.977Z,99262.39
2023-04-19T21:00:51.223Z,99261.21
2023-04-19T21:03:21.146Z,99261.91
2023-04-19T21:05:49.412Z,99264.16
2023-04-19T21:08:19.180Z,99261.79
2023-04-19T21:10:47.325Z,99255.98
2023-04-19T21:13:15.827Z,99257.54
2023-04-19T21:15:44.019Z,99255.98
2023-04-19T21:18:12.178Z,99257.13
2023-04-19T21:20:40.688Z,99258.73
2023-04-19T21:23:08.894Z,99253.86
2023-04-19T21:25:37.345Z,99254.09
2023-04-19T21:28:05.690Z,99256.86
2023-04-19T21:30:33.817Z,99255.55
2023-04-19T21:33:01.951Z,99256.14
2023-04-19T21:35:30.175Z,99256.30
2023-04-19T21:37:58.240Z,99254.85
2023-04-19T21:40:26.331Z,99255.55
2023-04-19T21:42:54.628Z,99260.04
2023-04-19T21:45:22.779Z,99264.74
2023-04-19T21:47:52.192Z,99260.19
2023-04-19T21:50:20.703Z,99263.43
2023-04-19T21:52:48.830Z,99260.19
2023-04-19T21:55:16.923Z,99261.06
2023-04-19T21:57:45.040Z,99261.02
2023-04-19T22:00:13.960Z,99258.39
2023-04-19T22:02:42.554Z,99258.75
2023-04-19T22:05:10.923Z,99258.39
2023-04-19T22:07:40.385Z,99257.04
2023-04-19T22:10:09.525Z,99256.98
2023-04-19T22:12:47.984Z,99258.69
2023-04-19T22:15:25.972Z,99254.91
2023-04-19T22:17:54.330Z,99254.34
2023-04-19T22:20:23.918Z,99252.35
2023-04-19T22:22:52.000Z,99253.33
2023-04-19T22:25:20.345Z,99256.04
2023-04-19T22:27:48.990Z,99253.08
2023-04-19T22:30:16.990Z,99256.23
2023-04-19T22:32:45.168Z,99249.13
2023-04-19T22:35:13.302Z,99251.34
2023-04-19T22:37:41.776Z,99249.73
2023-04-19T22:40:10.362Z,99243.30
2023-04-19T22:42:38.600Z,99245.41
2023-04-19T22:45:08.217Z,99240.37
2023-04-19T22:47:37.513Z,99239.27
2023-04-19T22:50:07.606Z,99237.00
2023-04-19T22:52:35.866Z,99235.95
2023-04-19T22:55:04.186Z,99237.00
2023-04-19T22:57:32.492Z,99234.27
2023-04-19T23:00:00.551Z,99228.70
2023-04-19T23:02:28.870Z,99223.23
2023-04-19T23:04:58.830Z,99225.80
2023-04-19T23:07:28.979Z,99223.56
2023-04-19T23:09:57.238Z,99218.98
2023-04-19T23:12:25.359Z,99216.66
2023-04-19T23:14:53.902Z,99213.98
2023-04-19T23:17:21.890Z,99213.05
2023-04-19T23:19:49.989Z,99210.60
2023-04-19T23:22:18.107Z,99208.08
2023-04-19T23:24:46.177Z,99205.16
2023-04-19T23:27:14.368Z,99205.85
2023-04-19T23:29:42.522Z,99207.70
2023-04-19T23:32:10.582Z,99200.46
2023-04-19T23:34:38.697Z,99197.83
2023-04-19T23:37:06.798Z,99198.38
2023-04-19T23:39:35.467Z,99192.76
2023-04-19T23:42:03.853Z,99190.95
2023-04-19T23:44:32.466Z,99191.14
2023-04-19T23:47:02.652Z,99189.69
2023-04-19T23:49:31.502Z,99188.45
2023-04-19T23:51:59.673Z,99186.45
2023-04-19T23:54:28.112Z,99186.67
2023-04-19T23:56:57.819Z,99182.69
2023-04-19T23:59:27.009Z,99182.75
